Airfield :
LOGIN :

Register | Disclaimer

   EN    FR    IT 

 










Legend :    VFR   Marginal VFR   IFR   Intensive IFR   Very Intensive IFR
Visi :
Ceiling :
>= 8 km
>= 3000ft
5 to 8 km
1000 to 3000 ft
1500m to 5 km
500 to 1000 ft
800 to 1500m
200 to 500 ft
< 800m
< 200 ft
Symbols :   Thunderstorms  Fog  Heavy snow  Heavy precipitations  Wind > 20 kt
SIGMETs :     Misc.  Thunderstorms  Icing  Turbulence  Mountain Waves  Volcanic Ashes






- Airport Elevation : 461 ft
- IATA code : WIE


ETOU - Wiesbaden Army

CURRENT METAR :
  • 200056Z AUTO 18004KT 9999 -RA OVC021 13/13 A2977 RMK AO2 RAE06DZB06E07RAB53 OVC V BKN SLP082 P0000 T01300125 $

EXPIRED METARs :
  • 200037Z AUTO 18003KT 9999 FEW005 BKN025 OVC032 13/12 A2977 RMK AO2 RAE06DZB06E07 CIG 004 RWY07 SLP082 $
  • 200027Z AUTO 17004KT 9999 SCT005 OVC030 13/12 A2977 RMK AO2 RAE06DZB06E07 SLP082 $
  • 200007Z AUTO 18003KT 9999 BKN005 OVC034 13/12 A2977 RMK AO2 RAE06DZB06E07 CIG 004 RWY07 SLP082 $
  • 192356Z AUTO 17005KT 9999 -RA BKN005 OVC036 13/12 A2977 RMK AO2 RAE2257DZB2257E2259RAB2259 BKN V OVC CIG 004 RWY07 SLP082 P0006 60009 T01300122 10141 20130 58002 $
  • 192347Z AUTO 19007KT 9999 -RA OVC005 13/12 A2978 RMK AO2 RAE2257DZB2257E2259RAB2259 CIG 005V038 CIG 004 RWY07 SLP086 $
  • 192256Z AUTO 18009KT 9999 -RA FEW005 FEW055 13/12 A2978 RMK AO2 SLP086 P0002 T01300119 401520083 $

Expired Forecast.



MET'MAP, your aeronautical weather chart ! - Copyright ORBIFLY December 2007 - Disclaimer

ORBIFLY MET'MAP TEAM :

Programming & Development : Alexandra Zaïnal
Concept & Development : Baudouin d'Aumeries
Co-Development & Prog : Marc-Olivier Méhu
Technical & hardware support : Manuel Goepfert

Contact : metmap@orbifly.com




SOURCES & CREDITS :

   NOAA